x

Ne Bahamas - 350 Nm Ene Of Nassau, Bahamas (41047) Wave Buoy

6:50am - Sat 6th Feb 2016 All times are UTC.

  • Sig Wave height 7.5ft
  • Swell Direction
  • Peak Period 11s
  • Average Period 8s
  • Wind
    16mph, 18mph gusts
  • Sea Temp 76°f
  • Air Temp 74°f
  • Sea Pressure 1018.6mb

More Historic Weather Station data

Upgrade to MSW Pro to gain access to the past 30 days of data for over 8000 Wavebouys and Weather Stations around the globe.

Join Pro

Comparision Forecast

View Surf forecast
   
Sat 02/06 6:50am 7.5ft 11s 8s 16 18 mph 1018.6mb 76f 74f
5:50am 7ft 10s 8s 16 18 mph 1018.8mb 76f 74f
4:50am 7ft 11s 8s 13 16 mph 1018.9mb 76f 74f
3:50am 8ft 11s 8s 13 16 mph 1019.2mb 76f 74f
2:50am 7.5ft 11s 8s 13 16 mph 1019.1mb 76f 74f
1:50am 7.5ft 10s 8s 9 11 mph 1019.1mb 76f 74f
12:50am 7.5ft 10s 8s 11 13 mph 1019.1mb 76f 74f
Fri 02/05 11:50pm 7.5ft 11s 8s 11 13 mph 1018.8mb 76f 74f
10:50pm 7ft 11s 8s 11 13 mph 1018.1mb 76f 73f
9:50pm 7ft 10s 8s 7 9 mph 1017.6mb 76f 74f
8:50pm 6.5ft 8s 7s 9 11 mph 1016.3mb 76f 74f
7:50pm 7ft 10s 7s 7 9 mph 1016.4mb 76f 73f
6:50pm 7ft 10s 7s 7 9 mph 1017.2mb 76f 73f
5:50pm 8ft 10s 8s 9 11 mph 1018.1mb 76f 73f
4:50pm 7ft 10s 7s 11 13 mph 1019.1mb 76f 73f
3:50pm 7ft 9s 7s 11 13 mph 1020.1mb 76f 72f
2:50pm 7.5ft 9s 8s 11 13 mph 1020.8mb 76f 73f
1:50pm 7.5ft 10s 7s 2 4 mph 1020.7mb 76f 74f
12:50pm 7.5ft 9s 7s 4 7 mph 1020mb 76f 73f
11:50am 7ft 10s 7s 4 7 mph 1019.5mb 75f 73f
10:50am 7.5ft 9s 7s 2 4 mph 1019mb 75f 72f
9:50am 7ft 9s 7s 9 11 mph 1018.5mb 75f 73f
8:50am 8ft 8s 7s 11 13 mph 1018.2mb 75f 73f
7:50am 6.5ft 8s 6s 11 13 mph 1018.4mb 75f 73f
6:50am 6.5ft 10s 6s 11 13 mph 1018.9mb 76f 73f
5:50am 6ft 8s 6s 11 16 mph 1019.3mb 76f 74f
4:50am 6.5ft 8s 6s 13 16 mph 1019.9mb 76f 74f
3:50am 6ft 7s 6s 16 18 mph 1020.5mb 76f 74f
2:50am 5.5ft 8s 6s 16 20 mph 1020.7mb 76f 74f
1:50am 6ft 8s 6s 16 20 mph 1020.7mb 76f 74f
12:50am 5.5ft 8s 6s 16 20 mph 1020.7mb 76f 74f
Thu 02/04 11:50pm 6ft 7s 6s 18 20 mph 1020.3mb 76f 74f
10:50pm 5ft 9s 6s 13 16 mph 1020.3mb 76f 73f
9:50pm 5.5ft 9s 6s 18 20 mph 1020.1mb 76f 73f
8:50pm 5.5ft 7s 6s 13 18 mph 1020.2mb 76f 74f
7:50pm 5.5ft 7s 6s 16 20 mph 1020.2mb 76f 74f
6:50pm 5.5ft 7s 6s 16 18 mph 1020.5mb 76f 73f
5:50pm 5ft 6s 6s 16 18 mph 1021.1mb 76f 74f
4:50pm 5.5ft 7s 6s 16 20 mph 1022.3mb 76f 74f
3:50pm 5.5ft 7s 6s 18 20 mph 1023.3mb 76f 74f
2:50pm 5.5ft 7s 6s 18 22 mph 1023.5mb 76f 74f
1:50pm 5.5ft 6s 5s 20 25 mph 1023.2mb 76f 74f
12:50pm 6ft 10s 6s 18 22 mph 1022.7mb 76f 74f
11:50am 5ft 7s 6s 18 22 mph 1022.1mb 76f 73f
10:50am 5ft 9s 6s 20 22 mph 1021.5mb 76f 73f
9:50am 5ft 7s 6s 18 20 mph 1021.3mb 75f 73f
8:50am 5ft 9s 6s 16 20 mph 1021.4mb 75f 73f
7:50am 5ft 9s 6s 18 20 mph 1021.7mb 75f 73f
6:50am 5ft 6s 5s 16 18 mph 1022mb 75f 73f
5:50am 5ft 6s 5s 18 22 mph 1022.1mb 76f 73f
4:50am 5ft 10s 5s 18 20 mph 1022.6mb 76f 73f
3:50am 5ft 6s 5s 16 20 mph 1023.1mb 76f 73f
2:50am 4.5ft 9s 5s 18 22 mph 1023mb 76f 73f
1:50am 4.5ft 9s 5s 18 22 mph 1022.8mb 76f 73f
12:50am 4.5ft 5s 5s 18 20 mph 1022.7mb 76f 73f
Wed 02/03 11:50pm 4.5ft 9s 5s 16 20 mph 1022.7mb 76f 73f
10:50pm 4.5ft 9s 5s 16 18 mph 1022.4mb 76f 73f
9:50pm 5ft 10s 5s 16 18 mph 1022mb 76f 73f
8:50pm 4ft 10s 5s 13 16 mph 1021.8mb 76f 73f
7:50pm 4ft 8s 5s 13 18 mph 1021.5mb 76f 73f
6:50pm 4ft 9s 5s 16 18 mph 1021.5mb 76f 73f
5:50pm 4.5ft 9s 5s 13 16 mph 1021.9mb 76f 73f
4:50pm 4ft 9s 6s 13 16 mph 1022.7mb 76f 73f
3:50pm 3.5ft 9s 5s 16 18 mph 1023.5mb 75f 73f
2:50pm 3.5ft 9s 5s 13 16 mph 1024mb 75f 73f
1:50pm 3.5ft 8s 5s 13 16 mph 1023.5mb 75f 73f
12:50pm 4ft 8s 5s 16 18 mph 1022.9mb 75f 73f
11:50am 3.5ft 8s 6s 13 18 mph 1022.3mb 75f 72f
10:50am 3.5ft 8s 6s 13 16 mph 1021.7mb 75f 72f
9:50am 3.5ft 10s 6s 11 13 mph 1021.5mb 75f 72f
8:50am 3.5ft 9s 6s 11 13 mph 1021.2mb 75f 72f
7:50am 3.5ft 9s 6s 11 13 mph 1021.3mb 75f 73f
6:50am 3.5ft 9s 6s 13 16 mph 1021.4mb 75f 73f
5:50am 3.5ft 9s 6s 11 13 mph 1021.7mb 75f 73f
4:50am 3.5ft 9s 6s 11 13 mph 1022mb 75f 73f
3:50am 3.5ft 9s 6s 11
mph
1022.6mb 75f 73f
2:50am 3.5ft 9s 6s 11 13 mph 1022.7mb 75f 73f
1:50am 3.5ft 9s 6s 11 13 mph 1022.4mb 75f 73f
12:50am 3.5ft 10s 6s 13 16 mph 1022.1mb 75f 73f
Tue 02/02 11:50pm 3.5ft 9s 6s 11 13 mph 1021.8mb 75f 73f
10:50pm 3.5ft 10s 7s 11 13 mph 1021.2mb 76f 73f
9:50pm 3.5ft 9s 7s 11 13 mph 1020.7mb 76f 73f
8:50pm 3.5ft 9s 7s 11 13 mph 1020.2mb 76f 73f
7:50pm 3.5ft 8s 7s 9
mph
1019.9mb 76f 73f
6:50pm 3.5ft 9s 7s 7 9 mph 1019.7mb 76f 73f
5:50pm 3.5ft 9s 7s 7
mph
1020.1mb 76f 73f
4:50pm 3.5ft 9s 7s 7 9 mph 1020.8mb 76f 73f
3:50pm 4ft 10s 7s 9 11 mph 1021.4mb 76f 73f
2:50pm 3.5ft 8s 7s 9
mph
1021.4mb 75f 73f
1:50pm 4ft 9s 7s 9 11 mph 1020.6mb 75f 73f
12:50pm 4ft 9s 7s 9 11 mph 1019.8mb 75f 72f
11:50am 4ft 9s 7s 7 9 mph 1019.3mb 75f 72f
10:50am 4ft 9s 6s 4 7 mph 1018.6mb 75f 72f
9:50am 4ft 8s 7s 4
mph
1018.1mb 75f 72f
8:50am 4.5ft 9s 7s 4 7 mph 1017.8mb 75f 72f